Time;durP1;ratioP1;P1;durP2;ratioP2;P2;SDS_P1;SDS_P2;PMS_P1;PMS_P2;Temp;Humidity;BMP_temperature;BMP_pressure;BME280_temperature;BME280_humidity;BME280_pressure;Samples;Min_cycle;Max_cycle;Signal;HPM_P1;HPM_P2
2021/08/11 00:02:04;;;;;;;0.40;0.10;;;;;;;19.51;70.54;100397.73;126477;1090;102952;-74
2021/08/11 00:04:31;;;;;;;0.40;0.10;;;;;;;19.57;71.17;100393.77;126457;1089;102898;-74
2021/08/11 00:06:58;;;;;;;0.40;0.00;;;;;;;19.61;71.09;100389.90;126438;1090;114486;-72
2021/08/11 00:09:25;;;;;;;0.40;0.00;;;;;;;19.61;70.57;100389.90;126570;1089;102907;-74
2021/08/11 00:11:52;;;;;;;0.40;0.10;;;;;;;19.67;71.02;100389.52;126392;1089;114551;-74
2021/08/11 00:14:19;;;;;;;0.40;0.10;;;;;;;19.75;70.86;100391.69;126491;1090;102929;-74
2021/08/11 00:16:47;;;;;;;0.40;0.10;;;;;;;19.72;71.05;100386.50;126532;1089;102905;-74
2021/08/11 00:19:14;;;;;;;0.40;0.00;;;;;;;19.80;71.20;100386.00;126445;1089;114820;-74
2021/08/11 00:21:41;;;;;;;0.40;0.03;;;;;;;19.74;70.62;100387.28;126604;1088;103039;-74
2021/08/11 00:24:08;;;;;;;0.40;0.10;;;;;;;19.75;70.97;100386.29;126448;1090;114458;-74
2021/08/11 00:26:35;;;;;;;0.40;0.00;;;;;;;19.83;70.62;100385.83;126522;1089;103035;-74
2021/08/11 00:29:03;;;;;;;0.40;0.00;;;;;;;19.86;70.47;100383.80;126523;1088;102877;-74
2021/08/11 00:31:31;;;;;;;0.40;0.00;;;;;;;19.94;70.47;100387.82;126435;1090;114265;-74
2021/08/11 00:33:58;;;;;;;0.40;0.10;;;;;;;19.96;70.00;100380.49;126441;1090;102919;-73
2021/08/11 00:36:25;;;;;;;0.40;0.10;;;;;;;20.04;69.72;100378.14;126410;1090;114347;-73
2021/08/11 00:38:52;;;;;;;0.40;0.10;;;;;;;20.05;70.07;100382.59;126528;1090;102947;-72
2021/08/11 00:41:20;;;;;;;0.40;0.10;;;;;;;20.05;69.84;100390.70;126587;1090;102906;-74
2021/08/11 00:43:47;;;;;;;0.40;0.10;;;;;;;20.05;69.85;100386.15;126482;1090;114337;-75
2021/08/11 00:46:14;;;;;;;0.40;0.10;;;;;;;20.03;69.83;100384.52;126492;1090;103030;-75
2021/08/11 00:48:41;;;;;;;0.40;0.00;;;;;;;20.03;70.29;100379.11;126455;1089;114245;-72
2021/08/11 00:51:09;;;;;;;0.40;0.00;;;;;;;20.10;69.83;100376.86;126495;1090;102876;-72
2021/08/11 00:53:38;;;;;;;0.40;0.10;;;;;;;20.06;69.55;100378.92;126499;1090;114464;-74
2021/08/11 00:56:06;;;;;;;0.40;0.10;;;;;;;20.01;69.43;100370.25;126510;1090;103437;-74
2021/08/11 00:58:35;;;;;;;0.40;0.10;;;;;;;20.00;69.49;100377.47;126470;1090;102931;-72
2021/08/11 01:01:03;;;;;;;0.40;0.10;;;;;;;20.07;69.75;100372.52;126518;1090;114323;-74
2021/08/11 01:03:31;;;;;;;0.40;0.05;;;;;;;20.06;69.14;100381.63;126367;1090;103127;-74
2021/08/11 01:06:03;;;;;;;0.40;0.10;;;;;;;19.95;69.55;100378.75;126400;1090;114493;-74
2021/08/11 01:08:31;;;;;;;0.40;0.00;;;;;;;19.99;69.32;100374.88;126546;1090;103375;-73
2021/08/11 01:10:59;;;;;;;0.40;0.00;;;;;;;19.88;69.80;100380.99;126488;1090;102888;-74
2021/08/11 01:13:26;;;;;;;0.40;0.10;;;;;;;19.86;70.08;100377.55;126519;1090;114317;-74
2021/08/11 01:15:54;;;;;;;0.40;0.00;;;;;;;19.95;70.22;100376.05;126529;1090;102888;-74
2021/08/11 01:18:22;;;;;;;0.40;0.00;;;;;;;19.93;69.90;100370.75;126420;1090;114358;-73
2021/08/11 01:21:19;;;;;;;0.40;0.00;;;;;;;20.02;69.54;100369.28;126543;1090;102907;-73
2021/08/11 01:24:07;;;;;;;0.40;0.00;;;;;;;19.94;69.35;100368.91;126455;1090;114443;-74
2021/08/11 01:26:58;;;;;;;0.40;0.00;;;;;;;19.82;69.77;100368.76;126573;1090;102946;-74
2021/08/11 01:29:50;;;;;;;0.40;0.00;;;;;;;19.82;70.33;100363.35;126597;1090;103079;-74
2021/08/11 01:32:45;;;;;;;0.40;0.10;;;;;;;19.93;70.11;100361.78;126501;1090;103004;-74
2021/08/11 01:35:16;;;;;;;0.40;0.00;;;;;;;19.86;70.44;100362.17;126555;1090;104105;-74
2021/08/11 01:37:44;;;;;;;0.40;0.10;;;;;;;19.92;70.15;100360.90;126420;1090;114298;-74
2021/08/11 01:40:17;;;;;;;0.40;0.00;;;;;;;20.01;70.02;100370.25;126522;1090;102871;-72
2021/08/11 01:42:44;;;;;;;0.40;0.00;;;;;;;20.07;69.92;100371.67;126527;1090;114286;-75
2021/08/11 01:45:15;;;;;;;0.40;0.00;;;;;;;20.03;69.64;100376.41;126527;1090;102875;-75
2021/08/11 01:47:47;;;;;;;0.40;0.00;;;;;;;19.93;69.86;100386.97;126558;1090;102893;-75
2021/08/11 01:50:16;;;;;;;0.40;0.00;;;;;;;19.93;70.16;100391.52;126447;1090;114010;-74
2021/08/11 01:52:44;;;;;;;0.40;0.00;;;;;;;19.96;69.94;100391.30;126514;1090;103011;-74
2021/08/11 01:55:13;;;;;;;0.40;0.00;;;;;;;19.96;70.15;100377.80;126555;1089;114493;-74
2021/08/11 01:57:50;;;;;;;0.40;0.07;;;;;;;19.94;69.66;100377.89;126485;1090;102900;-74
2021/08/11 02:00:18;;;;;;;0.40;0.00;;;;;;;19.81;69.31;100377.83;126459;1090;114636;-74
2021/08/11 02:02:46;;;;;;;0.40;0.00;;;;;;;19.81;69.69;100376.97;126562;1090;102958;-74
2021/08/11 02:05:16;;;;;;;0.40;0.00;;;;;;;19.74;69.40;100371.06;126588;1091;102911;-72
2021/08/11 02:07:44;;;;;;;0.40;0.00;;;;;;;19.75;69.64;100375.48;126437;1090;114329;-74
2021/08/11 02:10:13;;;;;;;0.40;0.00;;;;;;;19.80;69.70;100372.49;126498;1090;102878;-74
2021/08/11 02:12:41;;;;;;;0.40;0.00;;;;;;;19.86;69.48;100370.29;126468;1090;114488;-74
2021/08/11 02:15:09;;;;;;;0.40;0.10;;;;;;;19.84;69.29;100369.51;126592;1090;102991;-74
2021/08/11 02:17:38;;;;;;;0.40;0.00;;;;;;;19.86;69.38;100370.29;126546;1090;102878;-74
2021/08/11 02:20:07;;;;;;;0.40;0.10;;;;;;;19.77;69.36;100372.70;126436;1090;113627;-74
2021/08/11 02:22:34;;;;;;;0.40;0.00;;;;;;;19.85;69.00;100378.50;126571;1090;102971;-74
2021/08/11 02:25:04;;;;;;;0.40;0.00;;;;;;;19.85;69.20;100383.91;126474;1088;114316;-74
2021/08/11 02:28:16;;;;;;;0.40;0.00;;;;;;;19.94;69.28;100379.72;97341;1090;20001282;-73
2021/08/11 02:31:06;;;;;;;0.40;0.03;;;;;;;20.04;69.08;100376.30;91403;1093;20094004;-75
2021/08/11 02:34:03;;;;;;;0.40;0.00;;;;;;;19.99;68.73;100381.17;126521;1090;102922;-74
2021/08/11 02:36:35;;;;;;;0.40;0.00;;;;;;;19.94;69.00;100380.60;126355;1090;114502;-74
2021/08/11 02:39:08;;;;;;;0.40;0.10;;;;;;;19.86;68.78;100385.65;126505;1090;102983;-75
2021/08/11 02:41:44;;;;;;;0.40;0.10;;;;;;;19.85;68.91;100386.61;126536;1088;102891;-74
2021/08/11 02:44:17;;;;;;;0.40;0.00;;;;;;;19.85;68.85;100387.47;126415;1093;114499;-74
2021/08/11 02:46:45;;;;;;;0.40;0.10;;;;;;;19.94;68.19;100395.93;126564;1089;102884;-74
2021/08/11 02:49:18;;;;;;;0.40;0.10;;;;;;;19.87;68.24;100393.66;126469;1090;114397;-74
2021/08/11 02:51:46;;;;;;;0.40;0.00;;;;;;;19.77;68.27;100402.43;126524;1090;103012;-74
2021/08/11 02:54:16;;;;;;;0.40;0.10;;;;;;;19.67;68.51;100400.33;126463;1090;114442;-74
2021/08/11 02:56:44;;;;;;;0.40;0.10;;;;;;;19.62;68.53;100396.16;126588;1090;104725;-74
2021/08/11 02:59:11;;;;;;;0.40;0.10;;;;;;;19.63;68.81;100401.48;126564;1090;103086;-74
2021/08/11 03:01:39;;;;;;;0.40;0.00;;;;;;;19.66;68.75;100403.09;126498;1090;114306;-75
2021/08/11 03:04:07;;;;;;;0.40;0.10;;;;;;;19.68;68.84;100401.18;126518;1090;103406;-74
2021/08/11 03:06:35;;;;;;;0.40;0.00;;;;;;;19.72;68.13;100400.01;126551;1090;114661;-74
2021/08/11 03:09:03;;;;;;;0.40;0.10;;;;;;;19.53;68.35;100403.89;126565;1090;103004;-75
2021/08/11 03:11:30;;;;;;;0.40;0.10;;;;;;;19.41;68.66;100403.79;126580;1090;102900;-72
2021/08/11 03:13:57;;;;;;;0.40;0.10;;;;;;;19.38;68.40;100405.74;126501;1089;114379;-75
2021/08/11 03:16:24;;;;;;;0.40;0.10;;;;;;;19.32;68.72;100408.81;126582;1090;102996;-74
2021/08/11 03:18:52;;;;;;;0.40;0.00;;;;;;;19.35;68.92;100407.76;126434;1092;114320;-74
2021/08/11 03:21:20;;;;;;;0.40;0.05;;;;;;;19.48;68.51;100399.75;126512;1090;103017;-74
2021/08/11 03:23:47;;;;;;;0.40;0.00;;;;;;;19.54;68.85;100402.94;126586;1090;103031;-74
2021/08/11 03:26:14;;;;;;;0.40;0.10;;;;;;;19.45;68.50;100397.26;126528;1090;114092;-74
2021/08/11 03:28:42;;;;;;;0.40;0.10;;;;;;;19.38;68.85;100394.08;126566;1089;102943;-74
2021/08/11 03:31:09;;;;;;;0.40;0.10;;;;;;;19.36;68.85;100407.66;126459;1090;113266;-74
2021/08/11 03:33:36;;;;;;;0.40;0.05;;;;;;;19.23;68.87;100414.80;126533;1089;102911;-74
2021/08/11 03:36:03;;;;;;;0.40;0.10;;;;;;;19.14;68.94;100424.35;126533;1090;114484;-75
2021/08/11 03:38:31;;;;;;;0.40;0.00;;;;;;;19.14;69.65;100427.05;126558;1090;102903;-74
2021/08/11 03:40:58;;;;;;;0.40;0.10;;;;;;;19.10;69.71;100417.41;126574;1090;103071;-74
2021/08/11 03:43:25;;;;;;;0.40;0.10;;;;;;;19.18;69.99;100411.51;126570;1090;114243;-75
2021/08/11 03:45:52;;;;;;;0.40;0.10;;;;;;;19.15;69.76;100417.99;126527;1090;102894;-75
2021/08/11 03:48:20;;;;;;;0.40;0.10;;;;;;;19.21;69.75;100412.19;126457;1090;114460;-74
2021/08/11 03:50:47;;;;;;;0.40;0.03;;;;;;;19.27;69.46;100415.48;126559;1090;103684;-75
2021/08/11 03:53:14;;;;;;;0.40;0.10;;;;;;;19.35;69.51;100413.16;126567;1089;102908;-74
2021/08/11 03:55:42;;;;;;;0.40;0.10;;;;;;;19.40;68.75;100426.39;126483;1093;114307;-75
2021/08/11 03:58:09;;;;;;;0.40;0.00;;;;;;;19.24;69.38;100413.83;126537;1090;102916;-73
2021/08/11 04:00:36;;;;;;;0.40;0.10;;;;;;;19.26;69.75;100409.22;126441;1090;114502;-75
2021/08/11 04:03:03;;;;;;;0.40;0.10;;;;;;;19.24;69.78;100410.28;126545;1090;103047;-74
2021/08/11 04:05:31;;;;;;;0.40;0.00;;;;;;;19.19;69.89;100407.85;126551;1090;102901;-74
2021/08/11 04:07:58;;;;;;;0.40;0.00;;;;;;;19.21;70.15;100400.54;126474;1090;114285;-75
2021/08/11 04:10:25;;;;;;;0.40;0.10;;;;;;;19.31;70.20;100392.72;126522;1089;104181;-75
2021/08/11 04:12:52;;;;;;;0.40;0.00;;;;;;;19.44;70.01;100398.22;126592;1090;114332;-75
2021/08/11 04:15:21;;;;;;;0.40;0.00;;;;;;;19.49;69.46;100396.09;126545;1090;102909;-74
2021/08/11 04:17:48;;;;;;;0.40;0.00;;;;;;;19.50;69.35;100400.51;126608;1090;102898;-75
2021/08/11 04:20:15;;;;;;;0.40;0.10;;;;;;;19.52;69.17;100391.34;126454;1092;114183;-75
2021/08/11 04:22:42;;;;;;;0.40;0.10;;;;;;;19.47;69.37;100371.89;126537;1090;103061;-75
2021/08/11 04:25:09;;;;;;;0.40;0.10;;;;;;;19.44;69.37;100390.97;126468;1090;114451;-75
2021/08/11 04:27:36;;;;;;;0.40;0.10;;;;;;;19.50;69.47;100393.30;126543;1088;102902;-74
2021/08/11 04:30:05;;;;;;;0.40;0.10;;;;;;;19.42;69.46;100384.81;126471;1090;115075;-75
2021/08/11 04:32:35;;;;;;;0.40;0.07;;;;;;;19.38;69.82;100394.94;126676;1093;103020;-75
2021/08/11 04:35:09;;;;;;;0.40;0.10;;;;;;;19.45;70.06;100400.81;126507;1090;102876;-72
2021/08/11 04:37:38;;;;;;;0.40;0.10;;;;;;;19.52;69.48;100399.45;126486;1092;114333;-75
2021/08/11 04:40:06;;;;;;;0.40;0.00;;;;;;;19.48;69.37;100406.02;126537;1090;103015;-76
2021/08/11 04:42:35;;;;;;;0.40;0.10;;;;;;;19.38;69.68;100412.98;126482;1090;114544;-76
2021/08/11 04:45:03;;;;;;;0.40;0.00;;;;;;;19.44;69.81;100417.13;126538;1090;102978;-75
2021/08/11 04:47:30;;;;;;;0.40;0.10;;;;;;;19.53;69.29;100411.14;126541;1089;103047;-74
2021/08/11 04:49:57;;;;;;;0.40;0.05;;;;;;;19.53;69.43;100411.14;126484;1090;114278;-75
2021/08/11 04:52:24;;;;;;;0.40;0.10;;;;;;;19.44;69.37;100415.28;126519;1090;102880;-75
2021/08/11 04:54:51;;;;;;;0.40;0.10;;;;;;;19.36;69.43;100412.20;126459;1090;114391;-75
2021/08/11 04:57:18;;;;;;;0.40;0.10;;;;;;;19.38;69.99;100408.44;126494;1093;103025;-74
2021/08/11 04:59:45;;;;;;;0.40;0.10;;;;;;;19.40;69.59;100402.94;126530;1090;102959;-74
2021/08/11 05:02:13;;;;;;;0.40;0.10;;;;;;;19.47;69.45;100407.00;126441;1090;114380;-73
2021/08/11 05:04:40;;;;;;;0.40;0.10;;;;;;;19.49;69.20;100410.45;126387;1089;103578;-73
2021/08/11 05:07:08;;;;;;;0.40;0.10;;;;;;;19.42;69.74;100419.04;126330;1089;114421;-74
2021/08/11 05:09:35;;;;;;;0.40;0.10;;;;;;;19.35;69.52;100426.66;126591;1090;103116;-74
2021/08/11 05:12:02;;;;;;;0.40;0.10;;;;;;;19.36;70.03;100436.51;126316;1090;114440;-75
2021/08/11 05:14:30;;;;;;;0.40;0.10;;;;;;;19.43;70.30;100427.04;126390;1090;103118;-74
2021/08/11 05:16:57;;;;;;;0.40;0.10;;;;;;;19.49;69.92;100439.31;126431;1090;103052;-74
2021/08/11 05:19:24;;;;;;;0.40;0.10;;;;;;;19.51;70.00;100440.95;126366;1090;114370;-74
2021/08/11 05:21:51;;;;;;;0.40;0.00;;;;;;;19.47;69.77;100433.13;126404;1090;102978;-74
2021/08/11 05:24:19;;;;;;;0.40;0.10;;;;;;;19.31;70.06;100427.82;126329;1090;114464;-74
2021/08/11 05:26:46;;;;;;;0.40;0.08;;;;;;;19.26;69.98;100428.13;126520;1090;103029;-74
2021/08/11 05:29:15;;;;;;;0.40;0.10;;;;;;;19.26;70.54;100429.94;126531;1090;103018;-72
2021/08/11 05:31:42;;;;;;;0.40;0.10;;;;;;;19.31;70.79;100433.22;126498;1090;114425;-72
2021/08/11 05:34:10;;;;;;;0.40;0.00;;;;;;;19.37;69.83;100435.55;126541;1090;103026;-74
2021/08/11 05:36:37;;;;;;;0.40;0.10;;;;;;;19.27;70.29;100434.38;126410;1090;114732;-71
2021/08/11 05:39:04;;;;;;;0.40;0.10;;;;;;;19.20;69.88;100431.19;126552;1088;103016;-70
2021/08/11 05:41:31;;;;;;;0.40;0.10;;;;;;;19.29;69.98;100437.87;126575;1090;102993;-71
2021/08/11 05:43:58;;;;;;;0.40;0.00;;;;;;;19.46;70.11;100432.27;126494;1090;114639;-70
2021/08/11 05:46:25;;;;;;;0.40;0.00;;;;;;;19.56;69.92;100440.66;126496;1092;102881;-70
2021/08/11 05:48:53;;;;;;;0.40;0.00;;;;;;;19.65;69.50;100447.31;126480;1090;114329;-70
2021/08/11 05:51:20;;;;;;;0.40;0.00;;;;;;;19.61;69.21;100448.48;126653;1089;103009;-70
2021/08/11 05:53:47;;;;;;;0.40;0.00;;;;;;;19.62;69.51;100447.48;126606;1090;103174;-70
2021/08/11 05:56:16;;;;;;;0.40;0.00;;;;;;;19.68;68.76;100442.56;126492;1090;114165;-70
2021/08/11 05:58:43;;;;;;;0.40;0.00;;;;;;;19.69;68.87;100443.45;126540;1090;103502;-70
2021/08/11 06:01:10;;;;;;;0.40;0.00;;;;;;;19.78;69.47;100436.56;126465;1090;114366;-73
2021/08/11 06:03:38;;;;;;;0.40;0.10;;;;;;;19.89;69.84;100436.80;126597;1089;102985;-73
2021/08/11 06:06:06;;;;;;;0.40;0.00;;;;;;;19.97;69.09;100441.70;126445;1090;114485;-73
2021/08/11 06:08:34;;;;;;;0.40;0.00;;;;;;;20.00;68.83;100446.91;126519;1090;103389;-71
2021/08/11 06:11:01;;;;;;;0.40;0.00;;;;;;;20.14;67.96;100451.39;126380;1092;103084;-71
2021/08/11 06:13:29;;;;;;;0.40;0.00;;;;;;;20.11;68.01;100452.46;126297;1090;114268;-72
2021/08/11 06:15:56;;;;;;;0.40;0.00;;;;;;;20.07;67.99;100455.48;126414;1089;102879;-72
2021/08/11 06:18:23;;;;;;;0.40;0.00;;;;;;;19.91;68.11;100458.31;126481;1089;114502;-71
2021/08/11 06:20:53;;;;;;;0.40;0.00;;;;;;;19.97;68.25;100452.52;126526;1088;103119;-71
2021/08/11 06:23:20;;;;;;;0.40;0.10;;;;;;;20.20;68.29;100456.41;126587;1089;103079;-71
2021/08/11 06:25:48;;;;;;;0.40;0.00;;;;;;;20.26;67.16;100455.13;126426;1090;114307;-71
2021/08/11 06:28:15;;;;;;;0.40;0.05;;;;;;;20.15;67.57;100462.14;126555;1090;103020;-74
2021/08/11 06:30:42;;;;;;;0.40;0.00;;;;;;;20.11;67.32;100463.28;126473;1090;114533;-71
2021/08/11 06:33:09;;;;;;;0.40;0.00;;;;;;;20.18;67.56;100466.48;126574;1090;102983;-72
2021/08/11 06:35:36;;;;;;;0.40;0.10;;;;;;;20.12;67.18;100467.72;126577;1089;103020;-72
2021/08/11 06:38:04;;;;;;;0.40;0.00;;;;;;;20.09;67.45;100467.08;126504;1090;114665;-72
2021/08/11 06:40:35;;;;;;;0.40;0.00;;;;;;;20.09;67.99;100464.38;126595;1088;102953;-72
2021/08/11 06:43:03;;;;;;;0.40;0.00;;;;;;;20.27;67.89;100457.73;126540;1090;114299;-72
2021/08/11 06:45:30;;;;;;;0.40;0.10;;;;;;;20.36;67.60;100454.41;126564;1089;102920;-72
2021/08/11 06:47:57;;;;;;;0.40;0.10;;;;;;;20.45;66.93;100462.91;126591;1090;103020;-72
2021/08/11 06:50:25;;;;;;;0.40;0.08;;;;;;;20.55;67.84;100464.00;126541;1090;114172;-72
2021/08/11 06:52:52;;;;;;;0.40;0.10;;;;;;;20.57;67.00;100464.78;126592;1089;102975;-73
2021/08/11 06:55:20;;;;;;;0.40;0.00;;;;;;;20.65;65.98;100469.69;126537;1090;114295;-72
2021/08/11 06:57:50;;;;;;;0.40;0.00;;;;;;;20.63;66.50;100477.02;126568;1090;102988;-72
2021/08/11 07:00:18;;;;;;;0.40;0.00;;;;;;;20.70;65.95;100472.98;126450;1090;115133;-71
2021/08/11 07:02:47;;;;;;;0.40;0.00;;;;;;;20.84;66.37;100466.62;126573;1090;102894;-72
2021/08/11 07:05:15;;;;;;;0.40;0.00;;;;;;;20.85;66.46;100477.34;126618;1092;102982;-71
2021/08/11 07:07:42;;;;;;;0.40;0.00;;;;;;;20.91;65.96;100472.48;126520;1090;114227;-72
2021/08/11 07:10:11;;;;;;;0.40;0.00;;;;;;;20.94;66.08;100470.44;126557;1090;103425;-72
2021/08/11 07:12:39;;;;;;;0.40;0.00;;;;;;;20.92;65.55;100485.05;126614;1090;114313;-72
2021/08/11 07:15:08;;;;;;;0.40;0.00;;;;;;;20.82;65.56;100493.80;126573;1090;102953;-72
2021/08/11 07:17:35;;;;;;;0.40;0.10;;;;;;;20.85;66.21;100488.16;126532;1090;102952;-72
2021/08/11 07:20:10;;;;;;;0.40;0.00;;;;;;;20.93;65.81;100484.94;126495;1090;114410;-72
2021/08/11 07:22:39;;;;;;;0.40;0.00;;;;;;;20.94;65.81;100483.97;126608;1090;103335;-72
2021/08/11 07:25:06;;;;;;;0.40;0.00;;;;;;;20.96;66.04;100487.42;126440;1092;114520;-72
2021/08/11 07:27:33;;;;;;;0.40;0.03;;;;;;;20.95;65.55;100487.53;126568;1090;102879;-72
2021/08/11 07:30:01;;;;;;;0.40;0.00;;;;;;;21.13;65.19;100485.41;126548;1090;103029;-72
2021/08/11 07:32:28;;;;;;;0.40;0.00;;;;;;;21.23;66.00;100488.34;126424;1090;113468;-71
2021/08/11 07:34:55;;;;;;;0.40;0.00;;;;;;;21.26;65.14;100489.00;126524;1093;102877;-71
2021/08/11 07:37:22;;;;;;;0.40;0.00;;;;;;;21.29;65.57;100488.78;126476;1089;114302;-72
2021/08/11 07:39:53;;;;;;;0.40;0.00;;;;;;;21.32;65.02;100496.67;126542;1090;102916;-71
2021/08/11 07:42:21;;;;;;;0.40;0.00;;;;;;;21.37;65.40;100489.09;126471;1092;114482;-71
2021/08/11 07:44:48;;;;;;;0.40;0.10;;;;;;;21.51;65.11;100488.14;126637;1090;102871;-71
2021/08/11 07:47:19;;;;;;;0.40;0.00;;;;;;;21.70;65.10;100486.86;126449;1090;102882;-71
2021/08/11 07:49:46;;;;;;;0.40;0.05;;;;;;;21.72;63.81;100476.77;126489;1090;114263;-71
2021/08/11 07:52:13;;;;;;;0.40;0.00;;;;;;;21.71;64.15;100472.31;126586;1090;102985;-71
2021/08/11 07:54:40;;;;;;;0.40;0.00;;;;;;;21.76;64.41;100480.13;126431;1089;114458;-71
2021/08/11 07:57:08;;;;;;;0.40;0.00;;;;;;;21.87;64.65;100469.36;126330;1090;102909;-71
2021/08/11 07:59:35;;;;;;;0.40;0.00;;;;;;;21.85;63.91;100472.19;126352;1093;103111;-71
2021/08/11 08:02:08;;;;;;;0.40;0.00;;;;;;;21.85;64.37;100472.19;126461;1089;114278;-71
2021/08/11 08:04:41;;;;;;;0.40;0.00;;;;;;;21.98;63.52;100464.03;126444;1089;104916;-71
2021/08/11 08:07:09;;;;;;;0.40;0.00;;;;;;;22.00;63.82;100472.90;126256;1090;114569;-72
2021/08/11 08:09:36;;;;;;;0.40;0.00;;;;;;;22.06;63.17;100477.03;126393;1089;102907;-72
2021/08/11 08:12:03;;;;;;;0.40;0.00;;;;;;;22.09;62.93;100474.09;126412;1090;103020;-73
2021/08/11 08:14:31;;;;;;;0.40;0.00;;;;;;;22.08;63.41;100463.35;126565;1089;114134;-72
2021/08/11 08:16:58;;;;;;;0.40;0.00;;;;;;;22.07;62.51;100467.89;126504;1088;102913;-72
2021/08/11 08:19:25;;;;;;;0.40;0.00;;;;;;;22.17;62.64;100471.66;126405;1093;114277;-73
2021/08/11 08:21:54;;;;;;;0.40;0.07;;;;;;;22.39;61.31;100464.66;126548;1089;103000;-72
2021/08/11 08:24:22;;;;;;;0.40;0.00;;;;;;;22.50;61.34;100453.03;126389;1090;114445;-72
2021/08/11 08:26:49;;;;;;;0.40;0.00;;;;;;;22.61;61.29;100446.78;126481;1089;102930;-73
2021/08/11 08:29:16;;;;;;;0.40;0.00;;;;;;;22.72;61.48;100457.66;126459;1090;102932;-72
2021/08/11 08:31:44;;;;;;;0.40;0.00;;;;;;;22.78;60.70;100449.06;126405;1090;114334;-71
2021/08/11 08:34:11;;;;;;;0.40;0.00;;;;;;;22.77;60.84;100452.75;126467;1093;103329;-71
2021/08/11 08:36:38;;;;;;;0.40;0.00;;;;;;;22.84;60.16;100450.42;126345;1090;114898;-72
2021/08/11 08:39:05;;;;;;;0.40;0.00;;;;;;;22.91;60.38;100445.39;126537;1090;103191;-72
2021/08/11 08:41:34;;;;;;;0.40;0.00;;;;;;;22.98;59.47;100450.23;126491;1093;103036;-72
2021/08/11 08:44:02;;;;;;;0.40;0.00;;;;;;;23.12;60.16;100451.00;126404;1090;114314;-72
2021/08/11 08:46:30;;;;;;;0.40;0.00;;;;;;;23.31;59.71;100448.61;126479;1088;102895;-71
2021/08/11 08:48:58;;;;;;;0.40;0.00;;;;;;;23.45;58.31;100454.80;126352;1092;114312;-71
2021/08/11 08:51:26;;;;;;;0.40;0.00;;;;;;;23.56;58.75;100453.93;126590;1088;103122;-71
2021/08/11 08:53:53;;;;;;;0.40;0.00;;;;;;;23.64;58.69;100449.59;126476;1090;103132;-72
2021/08/11 08:56:20;;;;;;;0.40;0.00;;;;;;;23.74;58.27;100452.45;126359;1089;114296;-72
2021/08/11 08:58:48;;;;;;;0.40;0.00;;;;;;;23.86;57.69;100454.16;126493;1089;102994;-72
2021/08/11 09:01:15;;;;;;;0.40;0.00;;;;;;;23.88;57.14;100445.87;126533;1090;114319;-72
2021/08/11 09:03:42;;;;;;;0.40;0.00;;;;;;;23.98;58.96;100441.45;126514;1090;103006;-72
2021/08/11 09:06:10;;;;;;;0.40;0.00;;;;;;;24.17;57.79;100448.09;126537;1090;103042;-72
2021/08/11 09:08:55;;;;;;;0.40;0.00;;;;;;;24.26;56.28;100441.88;126475;1089;114177;-72
2021/08/11 09:11:22;;;;;;;0.40;0.00;;;;;;;24.43;56.39;100436.87;126593;1090;102878;-72
2021/08/11 09:14:20;;;;;;;0.40;0.00;;;;;;;24.60;56.55;100435.45;126282;1090;114287;-73
2021/08/11 09:16:50;;;;;;;0.40;0.00;;;;;;;24.88;54.16;100436.69;126412;1089;102966;-71
2021/08/11 09:19:18;;;;;;;0.40;0.00;;;;;;;24.91;52.34;100441.90;126426;1089;114271;-71
2021/08/11 09:22:00;;;;;;;0.40;0.00;;;;;;;24.99;52.92;100436.64;126641;1089;103090;-71
2021/08/11 09:24:28;;;;;;;0.40;0.00;;;;;;;24.96;53.64;100434.16;126523;1090;114482;-72
2021/08/11 09:26:55;;;;;;;0.40;0.00;;;;;;;24.92;52.63;100449.05;126573;1089;102923;-71
2021/08/11 09:29:22;;;;;;;0.40;0.00;;;;;;;25.00;51.65;100434.77;126619;1089;102913;-71
2021/08/11 09:31:49;;;;;;;0.40;0.00;;;;;;;24.89;52.87;100445.75;126486;1090;114299;-71
2021/08/11 09:34:17;;;;;;;0.40;0.00;;;;;;;24.70;52.66;100436.43;126612;1090;102887;-69
2021/08/11 09:36:52;;;;;;;0.40;0.00;;;;;;;24.56;51.89;100444.88;126455;1090;114625;-70
2021/08/11 09:39:20;;;;;;;0.40;0.00;;;;;;;25.26;51.14;100431.62;126587;1090;102942;-71
2021/08/11 09:41:57;;;;;;;0.40;0.00;;;;;;;25.98;50.54;100436.13;126637;1089;103020;-71
2021/08/11 09:44:25;;;;;;;0.40;0.00;;;;;;;25.92;49.61;100430.36;126477;1090;114262;-71
2021/08/11 09:46:53;;;;;;;0.40;0.00;;;;;;;26.31;49.01;100428.61;126540;1093;102911;-70
2021/08/11 09:49:24;;;;;;;0.40;0.00;;;;;;;26.69;48.35;100436.95;126470;1090;114280;-70
2021/08/11 09:51:55;;;;;;;0.40;0.00;;;;;;;26.96;48.25;100440.84;126582;1088;102875;-71
2021/08/11 09:54:24;;;;;;;0.40;0.00;;;;;;;27.88;45.11;100441.15;126530;1090;114438;-71
2021/08/11 09:56:51;;;;;;;0.40;0.00;;;;;;;27.78;44.60;100436.58;126533;1090;102886;-71
2021/08/11 09:59:18;;;;;;;0.40;0.00;;;;;;;27.84;44.53;100441.46;126426;1089;102878;-71
2021/08/11 10:01:48;;;;;;;0.40;0.00;;;;;;;27.90;45.97;100442.72;126456;1090;114271;-71
2021/08/11 10:04:16;;;;;;;0.40;0.00;;;;;;;28.46;45.48;100443.54;126464;1090;103038;-71
2021/08/11 10:06:45;;;;;;;0.40;0.00;;;;;;;28.59;43.05;100440.42;126279;1090;114578;-71
2021/08/11 10:09:16;;;;;;;0.40;0.00;;;;;;;29.24;42.03;100438.38;126353;1090;103079;-71
2021/08/11 10:11:44;;;;;;;0.40;0.00;;;;;;;29.92;39.52;100433.98;126580;1093;102974;-71
2021/08/11 10:14:13;;;;;;;0.40;0.00;;;;;;;29.92;39.65;100433.98;126363;1090;114298;-72
2021/08/11 10:16:41;;;;;;;0.40;0.00;;;;;;;29.60;38.14;100450.09;126487;1090;102953;-71
2021/08/11 10:19:10;;;;;;;0.40;0.00;;;;;;;29.85;36.18;100447.48;126244;1089;114283;-71
2021/08/11 10:21:48;;;;;;;0.40;0.00;;;;;;;30.86;35.61;100442.94;126383;1088;102927;-71
2021/08/11 10:24:15;;;;;;;0.40;0.00;;;;;;;32.16;33.47;100444.70;126326;1090;114444;-71
2021/08/11 10:26:48;;;;;;;0.40;0.00;;;;;;;32.50;32.67;100443.47;126327;1090;102897;-71
2021/08/11 10:29:16;;;;;;;0.40;0.00;;;;;;;32.90;33.14;100443.38;126546;1088;103165;-71
2021/08/11 10:31:44;;;;;;;0.40;0.00;;;;;;;33.57;31.39;100449.96;126369;1090;114416;-71
2021/08/11 10:34:12;;;;;;;0.40;0.00;;;;;;;33.79;29.28;100446.27;126483;1089;102891;-71
2021/08/11 10:36:43;;;;;;;0.40;0.00;;;;;;;34.07;29.81;100445.56;126423;1090;114506;-71
2021/08/11 10:39:10;;;;;;;0.40;0.00;;;;;;;34.92;27.61;100447.76;126585;1090;102895;-72
2021/08/11 10:41:38;;;;;;;0.40;0.00;;;;;;;35.33;27.56;100447.05;126609;1090;103045;-72
2021/08/11 10:44:16;;;;;;;0.40;0.00;;;;;;;34.64;28.47;100454.06;126457;1090;114296;-72
2021/08/11 10:46:45;;;;;;;0.40;0.00;;;;;;;34.50;28.45;100462.23;126662;1090;102972;-72
2021/08/11 10:49:17;;;;;;;0.40;0.00;;;;;;;34.39;28.48;100454.47;126491;1090;114255;-72
2021/08/11 10:51:47;;;;;;;0.40;0.00;;;;;;;34.43;28.62;100458.55;126622;1090;102872;-73
2021/08/11 10:54:14;;;;;;;0.40;0.00;;;;;;;33.83;29.27;100464.17;126488;1089;114275;-72
2021/08/11 10:56:49;;;;;;;0.40;0.00;;;;;;;33.09;29.97;100470.42;126627;1090;102996;-72
2021/08/11 10:59:22;;;;;;;0.40;0.00;;;;;;;32.51;30.94;100470.86;126686;1089;102913;-72
2021/08/11 11:01:49;;;;;;;0.40;0.00;;;;;;;31.70;31.25;100463.81;126494;1090;113696;-71
2021/08/11 11:04:40;;;;;;;0.40;0.00;;;;;;;30.97;33.60;100471.98;126584;1090;102977;-72
2021/08/11 11:07:11;;;;;;;0.40;0.00;;;;;;;30.47;33.41;100462.82;126459;1090;114287;-72
2021/08/11 11:09:39;;;;;;;0.40;0.00;;;;;;;30.01;35.16;100465.94;126602;1090;102873;-71
2021/08/11 11:12:15;;;;;;;0.40;0.00;;;;;;;29.65;35.84;100468.84;126627;1090;103013;-72
2021/08/11 11:14:46;;;;;;;0.40;0.00;;;;;;;29.19;34.78;100472.64;126508;1090;114650;-71
2021/08/11 11:17:15;;;;;;;0.40;0.00;;;;;;;28.81;35.82;100474.72;126575;1090;103248;-71
2021/08/11 11:20:04;;;;;;;0.40;0.00;;;;;;;28.59;36.14;100475.16;126411;1089;114630;-71